Time;durP1;ratioP1;P1;durP2;ratioP2;P2;SDS_P1;SDS_P2;PMS_P1;PMS_P2;Temp;Humidity;BMP_temperature;BMP_pressure;BME280_temperature;BME280_humidity;BME280_pressure;Samples;Min_cycle;Max_cycle;Signal;HPM_P1;HPM_P2
2020/12/16 00:01:26;;;;;;;36.88;22.85;;;;;;;7.80;73.77;100344.68;2622019;89;21175;-66
2020/12/16 00:10:42;;;;;;;36.23;23.98;;;;;;;7.78;73.66;100360.33;2661032;88;21177;-67
2020/12/16 00:14:45;;;;;;;38.05;25.50;;;;;;;7.74;73.67;100366.76;2586328;90;21196;-65
2020/12/16 00:18:48;;;;;;;39.05;25.00;;;;;;;7.74;73.82;100362.33;2677674;88;21212;-65
2020/12/16 00:22:51;;;;;;;50.43;28.92;;;;;;;7.84;74.01;100354.09;2642638;88;21225;-64
2020/12/16 00:26:54;;;;;;;96.30;60.00;;;;;;;7.94;73.96;100370.69;2660707;89;21183;-65
2020/12/16 00:30:57;;;;;;;78.47;49.30;;;;;;;7.83;73.32;100381.53;2657920;89;21129;-64
2020/12/16 00:34:59;;;;;;;78.02;49.03;;;;;;;7.66;73.04;100389.33;2614527;91;21195;-65
2020/12/16 00:39:08;;;;;;;83.27;56.75;;;;;;;7.49;73.48;100393.13;2657909;89;21137;-64
2020/12/16 00:43:11;;;;;;;86.57;59.77;;;;;;;7.36;73.91;100406.30;2586709;90;21190;-64
2020/12/16 00:47:14;;;;;;;74.85;48.08;;;;;;;7.28;74.24;100405.52;2677604;88;21124;-65
2020/12/16 00:51:19;;;;;;;60.60;35.80;;;;;;;7.25;74.55;100407.52;2614061;90;21203;-64
2020/12/16 00:55:22;;;;;;;38.53;26.82;;;;;;;7.28;74.70;100404.20;2657945;89;21192;-65
2020/12/16 00:59:24;;;;;;;32.95;21.05;;;;;;;7.34;74.96;100415.31;2586392;92;21191;-65
2020/12/16 01:03:27;;;;;;;22.48;16.95;;;;;;;7.37;75.37;100423.91;2677183;88;21180;-65
2020/12/16 01:07:30;;;;;;;25.20;16.05;;;;;;;7.41;75.35;100413.48;2586535;92;21182;-65
2020/12/16 01:11:37;;;;;;;26.75;19.27;;;;;;;7.47;75.45;100412.23;2680713;88;21166;-64
2020/12/16 01:15:40;;;;;;;25.40;16.23;;;;;;;7.50;75.34;100416.00;2683522;88;21448;-65
2020/12/16 01:19:42;;;;;;;23.30;15.40;;;;;;;7.56;75.29;100431.46;2682950;88;21185;-67
2020/12/16 01:23:46;;;;;;;23.90;15.88;;;;;;;7.56;75.61;100436.75;2683283;88;21161;-64
2020/12/16 01:27:59;;;;;;;27.13;16.35;;;;;;;7.58;75.88;100429.55;2665016;89;21209;-65
2020/12/16 01:32:02;;;;;;;27.67;15.78;;;;;;;7.62;75.92;100433.31;2626563;90;21192;-66
2020/12/16 01:36:05;;;;;;;22.10;12.43;;;;;;;7.65;75.92;100435.75;2620338;90;21184;-65
2020/12/16 01:40:10;;;;;;;18.57;12.93;;;;;;;7.67;75.93;100441.82;2613765;90;21243;-66
2020/12/16 01:44:20;;;;;;;22.77;14.28;;;;;;;7.69;75.83;100436.77;2614089;91;21169;-64
2020/12/16 01:48:23;;;;;;;21.42;14.47;;;;;;;7.71;75.50;100434.03;2614367;91;21157;-67
2020/12/16 01:52:28;;;;;;;21.50;14.60;;;;;;;7.68;75.43;100432.43;2620066;90;21230;-65
2020/12/16 01:56:32;;;;;;;17.73;12.85;;;;;;;7.67;75.49;100441.33;2630556;90;21131;-66
2020/12/16 02:00:37;;;;;;;21.95;16.00;;;;;;;7.68;75.68;100433.75;2635083;89;21166;-67
2020/12/16 02:04:45;;;;;;;20.27;11.35;;;;;;;7.69;75.62;100434.62;2627809;89;21632;-65
2020/12/16 02:08:52;;;;;;;20.95;12.60;;;;;;;7.72;75.64;100437.05;2617250;90;21143;-64
2020/12/16 02:12:55;;;;;;;19.20;12.43;;;;;;;7.73;75.47;100444.05;2649877;89;21669;-66
2020/12/16 02:16:59;;;;;;;21.95;14.00;;;;;;;7.69;75.47;100450.50;2635034;89;21199;-63
2020/12/16 02:21:02;;;;;;;18.80;12.37;;;;;;;7.69;75.51;100454.48;2617660;89;21187;-66
2020/12/16 02:25:11;;;;;;;24.30;13.85;;;;;;;7.69;75.44;100455.80;2653079;88;21649;-66
2020/12/16 02:29:14;;;;;;;22.20;13.50;;;;;;;7.72;75.66;100460.89;2566025;91;21604;-65
2020/12/16 02:33:17;;;;;;;18.07;11.65;;;;;;;7.76;75.81;100461.50;2565036;92;21173;-66
2020/12/16 02:37:20;;;;;;;15.55;11.45;;;;;;;7.78;75.93;100461.78;2638706;89;21210;-67
2020/12/16 02:41:24;;;;;;;18.75;12.50;;;;;;;7.78;75.97;100463.11;2672698;88;21167;-67
2020/12/16 02:45:27;;;;;;;17.07;11.40;;;;;;;7.76;76.03;100476.93;2696664;86;21150;-65
2020/12/16 02:49:30;;;;;;;14.87;10.98;;;;;;;7.76;76.15;100474.28;2634666;89;21164;-66
2020/12/16 02:53:34;;;;;;;23.30;13.45;;;;;;;7.77;76.20;100474.66;2675556;88;21161;-66
2020/12/16 02:57:37;;;;;;;17.87;11.65;;;;;;;7.78;76.19;100470.22;2696505;88;21172;-66
2020/12/16 03:01:40;;;;;;;15.08;10.35;;;;;;;7.77;76.10;100483.92;2648944;89;21196;-63
2020/12/16 03:05:44;;;;;;;14.68;10.13;;;;;;;7.75;76.02;100488.48;2632601;89;21153;-65
2020/12/16 03:09:46;;;;;;;15.03;10.55;;;;;;;7.75;75.72;100483.18;2652290;88;21169;-64
2020/12/16 03:13:49;;;;;;;19.52;11.03;;;;;;;7.74;75.56;100486.78;2683324;87;21208;-66
2020/12/16 03:17:52;;;;;;;16.35;10.55;;;;;;;7.79;75.68;100485.98;2656824;88;22292;-65
2020/12/16 03:21:55;;;;;;;17.77;9.70;;;;;;;7.79;75.51;100486.48;2586532;90;21174;-66
2020/12/16 03:25:58;;;;;;;14.45;9.98;;;;;;;7.80;75.38;100485.04;2673174;87;21151;-67
2020/12/16 03:30:01;;;;;;;12.40;9.68;;;;;;;7.83;75.29;100487.97;2683228;87;21176;-65
2020/12/16 03:34:04;;;;;;;14.33;9.93;;;;;;;7.85;75.05;100496.66;2657857;89;21152;-66
2020/12/16 03:38:08;;;;;;;14.45;9.53;;;;;;;7.83;75.02;100498.06;2657889;89;21152;-65
2020/12/16 03:42:12;;;;;;;19.80;10.98;;;;;;;7.82;75.08;100493.73;2649389;87;21216;-65
2020/12/16 03:46:16;;;;;;;14.73;9.53;;;;;;;7.82;75.20;100500.34;2613930;91;21663;-64
2020/12/16 03:50:19;;;;;;;18.20;10.95;;;;;;;7.82;75.36;100504.31;2627813;87;21662;-66
2020/12/16 03:54:23;;;;;;;12.78;9.65;;;;;;;7.85;75.47;100508.58;2595014;90;21174;-64
2020/12/16 03:58:25;;;;;;;16.65;10.93;;;;;;;7.89;75.49;100515.36;2677364;88;21215;-63
2020/12/16 04:02:29;;;;;;;12.78;10.75;;;;;;;7.92;75.64;100518.28;2658023;89;21177;-64
2020/12/16 04:06:32;;;;;;;14.10;9.53;;;;;;;7.92;75.73;100517.80;2658122;89;21196;-67
2020/12/16 04:10:35;;;;;;;13.22;10.25;;;;;;;7.94;75.86;100522.51;2586857;90;21500;-65
2020/12/16 04:14:38;;;;;;;15.70;10.53;;;;;;;7.97;75.85;100524.12;2616042;90;21201;-67
2020/12/16 04:18:41;;;;;;;11.55;8.45;;;;;;;8.00;75.92;100523.91;2570265;92;21206;-64
2020/12/16 04:22:44;;;;;;;20.85;11.35;;;;;;;8.02;76.15;100523.81;2614683;90;21183;-64
2020/12/16 04:26:46;;;;;;;16.48;10.55;;;;;;;8.08;76.18;100526.91;2677909;88;21208;-64
2020/12/16 04:30:49;;;;;;;21.55;12.18;;;;;;;8.17;76.19;100521.92;2650318;88;21170;-64
2020/12/16 04:34:52;;;;;;;16.57;10.90;;;;;;;8.23;76.01;100524.14;2630919;90;21213;-65
2020/12/16 04:38:55;;;;;;;18.30;10.50;;;;;;;8.27;75.87;100526.98;2631206;90;21229;-65
2020/12/16 04:43:08;;;;;;;18.07;11.48;;;;;;;8.27;75.98;100526.48;2630885;90;21153;-64
2020/12/16 04:47:11;;;;;;;21.00;11.85;;;;;;;8.30;75.94;100533.39;2630783;90;21239;-63
2020/12/16 04:51:17;;;;;;;19.10;9.98;;;;;;;8.31;75.92;100534.22;2628966;90;21187;-65
2020/12/16 04:55:21;;;;;;;15.87;10.43;;;;;;;8.31;75.86;100543.03;2630758;89;21588;-64
2020/12/16 04:59:24;;;;;;;16.65;10.43;;;;;;;8.23;75.73;100530.77;2630581;90;22158;-64
2020/12/16 05:03:28;;;;;;;18.98;11.90;;;;;;;8.35;75.66;100547.17;2630872;90;21197;-63
2020/12/16 05:07:33;;;;;;;19.00;13.20;;;;;;;8.32;75.71;100553.14;2600798;90;21231;-65
2020/12/16 05:11:48;;;;;;;17.57;11.33;;;;;;;8.27;75.67;100554.81;2593470;90;21234;-65
2020/12/16 05:15:52;;;;;;;27.55;13.53;;;;;;;8.22;75.67;100558.22;2640885;90;21214;-65
2020/12/16 05:19:57;;;;;;;20.48;13.95;;;;;;;8.15;75.77;100552.02;2607503;90;21677;-64
2020/12/16 05:24:05;;;;;;;16.67;11.38;;;;;;;8.16;76.10;100552.89;2598012;91;21222;-66
2020/12/16 05:28:08;;;;;;;21.82;15.98;;;;;;;8.21;76.10;100558.72;2596424;90;21792;-64
2020/12/16 05:36:46;;;;;;;21.60;13.58;;;;;;;8.25;76.11;100569.48;2990595;77;22490;-63
2020/12/16 05:40:50;;;;;;;22.05;14.93;;;;;;;8.22;76.06;100582.08;2900344;82;21149;-64
2020/12/16 05:45:01;;;;;;;15.78;11.83;;;;;;;8.22;76.21;100580.75;2897274;81;21159;-63
2020/12/16 05:49:25;;;;;;;16.48;10.55;;;;;;;8.23;76.17;100587.75;2821241;84;21181;-64
2020/12/16 05:53:30;;;;;;;13.78;10.15;;;;;;;8.21;76.24;100598.92;2838490;83;21137;-64
2020/12/16 05:57:33;;;;;;;17.70;11.25;;;;;;;8.22;76.38;100603.27;2772884;85;21137;-63
2020/12/16 06:01:37;;;;;;;17.05;11.30;;;;;;;8.23;76.39;100606.30;2789844;83;21137;-64
2020/12/16 06:05:40;;;;;;;14.80;10.43;;;;;;;8.22;76.40;100617.84;2818580;84;21144;-65
2020/12/16 06:09:44;;;;;;;15.13;11.03;;;;;;;8.21;76.22;100614.83;2807997;82;21172;-64
2020/12/16 06:13:47;;;;;;;28.67;13.88;;;;;;;8.17;76.26;100614.20;2899682;82;21141;-64
2020/12/16 06:17:50;;;;;;;13.88;9.88;;;;;;;8.14;76.42;100607.30;2884076;82;21152;-64
2020/12/16 06:21:58;;;;;;;14.55;9.55;;;;;;;8.13;76.77;100618.84;2820915;83;21739;-63
2020/12/16 06:26:04;;;;;;;19.12;12.03;;;;;;;8.17;76.72;100617.31;2786548;84;21108;-65
2020/12/16 06:30:09;;;;;;;21.35;11.43;;;;;;;8.17;76.73;100627.91;2861817;82;21615;-62
2020/12/16 06:34:14;;;;;;;17.10;11.25;;;;;;;8.15;76.85;100635.49;2870288;82;21604;-64
2020/12/16 06:38:21;;;;;;;15.18;11.90;;;;;;;8.14;77.00;100637.77;2897638;81;22215;-63
2020/12/16 06:42:35;;;;;;;19.40;13.53;;;;;;;8.14;77.05;100637.77;2894409;82;21173;-63
2020/12/16 06:46:41;;;;;;;18.05;10.88;;;;;;;8.13;77.19;100640.51;2821036;83;21126;-62
2020/12/16 06:50:44;;;;;;;;;;;;;;;8.12;77.34;100642.33;2823048;84;21179;-64
2020/12/16 06:54:53;;;;;;;17.07;12.28;;;;;;;8.15;77.44;100654.04;2808033;83;20171;-62
2020/12/16 06:58:52;;;;;;;18.60;13.25;;;;;;;8.16;77.49;100662.86;2820595;83;21150;-63
2020/12/16 07:02:59;;;;;;;19.90;14.13;;;;;;;8.17;77.58;100670.31;2820869;84;21162;-63
2020/12/16 07:07:02;;;;;;;21.73;16.65;;;;;;;8.21;77.64;100670.48;2811851;82;21162;-61
2020/12/16 07:11:07;;;;;;;20.57;14.78;;;;;;;8.27;77.54;100679.38;2889882;82;21134;-63
2020/12/16 07:15:10;;;;;;;22.05;13.50;;;;;;;8.34;77.48;100679.79;2892349;82;21150;-63
2020/12/16 07:19:28;;;;;;;18.57;12.65;;;;;;;8.38;77.28;100676.84;2891663;82;21126;-62
2020/12/16 07:23:59;;;;;;;18.25;14.85;;;;;;;8.46;77.33;100674.18;2889099;82;21150;-61
2020/12/16 07:28:06;;;;;;;20.57;14.47;;;;;;;8.50;77.17;100681.83;2842883;83;21148;-63
2020/12/16 07:32:12;;;;;;;15.50;10.50;;;;;;;8.54;77.24;100687.79;2880047;82;21153;-63
2020/12/16 07:36:19;;;;;;;17.75;13.00;;;;;;;8.53;77.08;100681.63;2899313;82;21169;-62
2020/12/16 07:40:24;;;;;;;22.55;13.50;;;;;;;8.53;77.21;100682.12;2899439;82;21129;-63
2020/12/16 07:44:29;;;;;;;18.07;12.75;;;;;;;8.53;77.23;100684.77;2900936;80;21151;-62
2020/12/16 07:48:34;;;;;;;17.67;12.85;;;;;;;8.52;77.39;100682.58;2883087;82;21127;-62
2020/12/16 07:52:36;;;;;;;20.45;12.35;;;;;;;8.54;77.62;100695.74;2883030;82;21155;-62
2020/12/16 07:56:39;;;;;;;23.47;14.87;;;;;;;8.57;77.61;100708.33;2835189;83;21172;-61
2020/12/16 08:00:42;;;;;;;15.70;11.43;;;;;;;8.63;77.57;100715.49;2848023;83;21432;-60
2020/12/16 08:05:03;;;;;;;21.33;13.48;;;;;;;8.63;77.38;100711.02;2833217;84;21133;-61
2020/12/16 08:09:07;;;;;;;20.20;14.28;;;;;;;8.64;77.57;100714.55;2829335;84;21128;-62
2020/12/16 08:13:10;;;;;;;20.32;13.72;;;;;;;8.67;77.78;100720.96;2899211;82;21129;-63
2020/12/16 08:17:13;;;;;;;18.02;12.58;;;;;;;8.69;77.66;100719.91;2899240;82;21600;-62
2020/12/16 08:21:20;;;;;;;18.07;12.55;;;;;;;8.74;77.69;100718.75;2887759;82;21135;-62
2020/12/16 08:25:23;;;;;;;;;;;;;;;8.79;77.87;100728.11;2886444;82;21147;-61
2020/12/16 08:29:29;;;;;;;20.08;12.85;;;;;;;8.88;77.92;100725.77;2882982;82;20114;-62
2020/12/16 08:33:33;;;;;;;15.65;10.72;;;;;;;8.91;77.80;100729.08;2874734;82;21531;-63
2020/12/16 08:37:39;;;;;;;13.13;9.73;;;;;;;8.96;77.78;100732.75;2824488;83;21209;-63
2020/12/16 08:41:44;;;;;;;22.37;13.18;;;;;;;8.99;77.62;100740.50;2825109;84;21545;-63
2020/12/16 08:45:48;;;;;;;20.33;13.63;;;;;;;9.00;77.71;100746.17;2831273;83;21127;-62
2020/12/16 08:49:52;;;;;;;15.88;11.60;;;;;;;9.01;77.56;100749.20;2833315;84;21180;-62
2020/12/16 08:54:05;;;;;;;16.90;10.53;;;;;;;9.00;77.69;100748.33;2833302;84;21550;-62
2020/12/16 08:58:08;;;;;;;26.70;15.83;;;;;;;9.03;77.69;100741.12;2826761;84;21166;-62
2020/12/16 09:02:11;;;;;;;19.05;11.40;;;;;;;9.06;77.71;100742.27;2818026;84;21125;-62
2020/12/16 09:06:15;;;;;;;17.92;12.47;;;;;;;9.08;77.78;100743.00;2778750;85;21141;-61
2020/12/16 09:10:18;;;;;;;19.73;13.43;;;;;;;9.10;77.88;100753.86;2815683;84;21143;-61
2020/12/16 09:14:23;;;;;;;22.25;14.25;;;;;;;9.21;77.85;100761.09;2858794;83;21116;-62
2020/12/16 09:18:28;;;;;;;17.67;11.63;;;;;;;9.32;77.89;100764.33;2858970;83;21136;-61
2020/12/16 09:22:32;;;;;;;;;;;;;;;9.42;77.66;100764.55;2864707;82;21138;-63
2020/12/16 09:26:44;;;;;;;18.27;13.40;;;;;;;9.50;77.24;100765.34;2862750;82;20189;-64
2020/12/16 09:30:47;;;;;;;20.82;14.93;;;;;;;9.60;77.24;100770.39;2825193;84;21156;-63
2020/12/16 09:34:54;;;;;;;26.02;12.93;;;;;;;9.72;77.02;100774.00;2874726;82;21193;-63
2020/12/16 09:39:00;;;;;;;17.30;13.00;;;;;;;9.79;77.02;100775.74;2900468;82;21157;-62
2020/12/16 09:43:04;;;;;;;25.45;14.50;;;;;;;9.85;76.75;100779.28;2900605;82;21133;-62
2020/12/16 09:47:22;;;;;;;26.48;18.12;;;;;;;9.90;76.44;100781.62;2897865;82;21145;-63
2020/12/16 09:51:25;;;;;;;21.60;13.50;;;;;;;9.90;76.35;100784.28;2897949;82;21166;-61
2020/12/16 09:55:29;;;;;;;18.67;13.80;;;;;;;9.90;76.54;100790.42;2895248;82;21407;-61
2020/12/16 09:59:34;;;;;;;;;;;;;;;9.93;76.27;100794.69;2851026;83;21175;-63
2020/12/16 10:03:59;;;;;;;26.27;15.32;;;;;;;9.95;76.38;100792.77;2850592;83;20216;-61
2020/12/16 10:08:05;;;;;;;21.62;14.47;;;;;;;9.99;76.57;100787.59;2855698;82;21140;-63
2020/12/16 10:12:08;;;;;;;20.55;13.88;;;;;;;10.02;76.42;100779.89;2826313;83;21132;-62
2020/12/16 10:16:12;;;;;;;19.82;13.83;;;;;;;10.07;76.31;100779.94;2808611;84;21148;-62
2020/12/16 10:20:18;;;;;;;19.57;13.25;;;;;;;10.15;76.33;100788.20;2825332;84;21174;-63
2020/12/16 10:24:21;;;;;;;17.40;12.05;;;;;;;10.22;76.45;100788.61;2901054;82;21153;-61
2020/12/16 10:28:24;;;;;;;19.52;15.38;;;;;;;10.31;76.80;100791.08;2901038;82;21172;-61
2020/12/16 10:32:28;;;;;;;16.48;13.83;;;;;;;10.43;76.56;100785.38;2889776;82;21174;-62
2020/12/16 10:36:31;;;;;;;19.62;16.45;;;;;;;10.53;76.13;100777.56;2853324;83;21183;-61
2020/12/16 10:40:34;;;;;;;18.52;13.48;;;;;;;10.57;75.96;100783.02;2847901;82;21625;-62
2020/12/16 10:44:37;;;;;;;21.05;12.05;;;;;;;10.63;75.61;100773.27;2859851;82;21129;-63
2020/12/16 10:48:41;;;;;;;23.20;15.90;;;;;;;10.66;75.54;100773.04;2904546;81;21141;-62
2020/12/16 10:52:44;;;;;;;26.23;17.82;;;;;;;10.70;75.41;100776.30;2904668;82;21145;-62
2020/12/16 10:56:55;;;;;;;26.68;19.25;;;;;;;10.78;75.40;100775.72;2877126;81;21143;-62
2020/12/16 11:00:58;;;;;;;22.87;15.13;;;;;;;10.83;75.31;100767.77;2825797;84;21194;-62
2020/12/16 11:05:01;;;;;;;21.00;14.58;;;;;;;10.84;75.06;100761.98;2826455;82;21158;-62
2020/12/16 11:09:05;;;;;;;22.10;14.00;;;;;;;10.86;74.94;100755.56;2870154;82;21169;-61
2020/12/16 11:13:08;;;;;;;21.10;15.13;;;;;;;10.90;74.98;100752.19;2902150;82;21157;-62
2020/12/16 11:17:30;;;;;;;18.17;13.28;;;;;;;10.89;74.67;100755.81;2901992;81;21166;-64
2020/12/16 11:22:08;;;;;;;26.73;14.58;;;;;;;10.90;74.76;100753.52;2875515;82;21575;-63
2020/12/16 11:26:14;;;;;;;24.75;14.73;;;;;;;10.93;74.84;100750.62;2901651;81;21154;-64
2020/12/16 11:30:18;;;;;;;19.32;13.83;;;;;;;11.00;74.48;100745.69;2901774;81;21094;-62
2020/12/16 11:34:23;;;;;;;17.25;12.65;;;;;;;11.00;74.67;100741.22;2903033;81;21168;-63
2020/12/16 11:38:26;;;;;;;24.20;16.77;;;;;;;11.04;74.37;100744.98;2900924;82;21139;-62
2020/12/16 11:42:29;;;;;;;21.37;14.10;;;;;;;11.08;74.10;100747.77;2896190;82;21149;-62
2020/12/16 11:46:33;;;;;;;25.70;15.60;;;;;;;11.10;73.96;100751.16;2900915;82;21141;-62
2020/12/16 11:50:38;;;;;;;20.02;14.80;;;;;;;11.05;73.68;100748.00;2899819;82;21117;-64
2020/12/16 11:54:40;;;;;;;19.32;13.13;;;;;;;10.99;73.95;100746.16;2900861;82;21117;-62
2020/12/16 11:58:44;;;;;;;24.92;15.38;;;;;;;11.00;73.95;100749.20;2900961;82;21141;-63
2020/12/16 12:02:48;;;;;;;21.35;14.83;;;;;;;11.02;74.13;100744.25;2900837;82;21149;-62
2020/12/16 12:06:51;;;;;;;28.12;16.95;;;;;;;11.05;74.33;100746.67;2900986;82;21133;-62
2020/12/16 12:10:55;;;;;;;37.58;21.62;;;;;;;11.10;74.24;100741.83;2874171;82;21147;-62
2020/12/16 12:14:58;;;;;;;30.77;21.80;;;;;;;11.09;73.78;100745.47;2854191;82;21531;-62
2020/12/16 12:19:01;;;;;;;42.23;29.75;;;;;;;11.02;74.01;100744.25;2842036;83;21196;-62
2020/12/16 12:23:07;;;;;;;58.40;34.92;;;;;;;11.03;74.03;100741.45;2880260;82;21177;-63
2020/12/16 12:27:10;;;;;;;26.27;17.35;;;;;;;11.00;73.86;100738.56;2901140;82;21138;-62
2020/12/16 12:31:15;;;;;;;36.23;25.40;;;;;;;10.97;74.24;100737.44;2900382;82;21113;-62
2020/12/16 12:35:18;;;;;;;42.75;30.70;;;;;;;11.02;74.62;100742.91;2902010;80;21615;-63
2020/12/16 12:39:23;;;;;;;46.68;32.55;;;;;;;11.08;73.87;100744.60;2944136;79;21149;-63
2020/12/16 12:43:26;;;;;;;35.52;25.12;;;;;;;11.12;73.42;100746.09;2944219;80;21443;-63
2020/12/16 12:47:29;;;;;;;33.25;21.10;;;;;;;11.17;73.17;100751.03;2913673;80;21157;-62
2020/12/16 12:51:32;;;;;;;34.27;23.60;;;;;;;11.06;73.24;100749.70;2900774;82;21144;-63
2020/12/16 12:55:38;;;;;;;43.68;29.07;;;;;;;10.88;74.04;100746.14;2900555;82;21137;-64
2020/12/16 12:59:41;;;;;;;49.55;31.40;;;;;;;10.75;74.61;100746.23;2858626;82;21575;-61
2020/12/16 13:03:47;;;;;;;58.78;34.05;;;;;;;10.72;74.94;100749.13;2841805;83;21205;-62
2020/12/16 13:07:48;;;;;;;69.47;38.02;;;;;;;10.82;74.87;100755.93;2841928;83;21104;-63
2020/12/16 13:11:52;;;;;;;90.92;53.48;;;;;;;10.78;74.69;100750.45;2841710;82;21172;-62
2020/12/16 13:15:55;;;;;;;66.67;36.08;;;;;;;10.75;75.15;100760.00;2841765;83;21112;-63
2020/12/16 13:19:58;;;;;;;92.55;46.20;;;;;;;10.70;75.50;100763.86;2851290;82;21155;-62
2020/12/16 13:24:01;;;;;;;64.25;34.23;;;;;;;10.59;75.79;100761.14;2859335;82;21155;-62
2020/12/16 13:28:04;;;;;;;85.25;42.95;;;;;;;10.50;75.99;100767.16;2859091;82;21174;-62
2020/12/16 13:32:07;;;;;;;155.35;91.53;;;;;;;10.42;76.17;100769.05;2859093;82;21541;-62
2020/12/16 13:36:10;;;;;;;82.90;52.25;;;;;;;10.37;76.53;100777.33;2890879;81;21584;-62
2020/12/16 13:40:13;;;;;;;82.47;52.33;;;;;;;10.45;77.00;100775.96;2900883;82;21129;-62
2020/12/16 13:44:18;;;;;;;91.55;61.80;;;;;;;10.64;76.98;100783.42;2900495;82;21662;-63
2020/12/16 13:48:23;;;;;;;224.00;137.88;;;;;;;10.82;76.60;100787.86;2900758;82;21559;-63
2020/12/16 13:52:26;;;;;;;133.07;74.77;;;;;;;10.90;76.17;100791.25;2851964;82;21118;-63
2020/12/16 13:56:29;;;;;;;186.03;101.25;;;;;;;11.02;75.87;100796.16;2826147;83;21158;-64
2020/12/16 14:00:33;;;;;;;201.10;111.32;;;;;;;11.10;75.55;100800.41;2853816;82;21115;-62
2020/12/16 14:04:36;;;;;;;66.35;37.28;;;;;;;11.12;75.32;100800.67;2859584;83;21627;-64
2020/12/16 14:08:39;;;;;;;55.92;38.40;;;;;;;11.18;75.05;100800.66;2859456;83;21150;-63
2020/12/16 14:12:42;;;;;;;161.22;97.08;;;;;;;11.27;74.81;100805.30;2894153;82;21131;-63
2020/12/16 14:16:45;;;;;;;48.85;29.18;;;;;;;11.32;74.18;100813.41;2900735;82;21141;-62
2020/12/16 14:20:48;;;;;;;30.72;20.95;;;;;;;11.26;73.75;100811.59;2900940;82;21145;-65
2020/12/16 14:24:51;;;;;;;33.05;21.27;;;;;;;11.24;74.03;100821.52;2869300;82;21147;-62
2020/12/16 14:28:54;;;;;;;35.55;22.02;;;;;;;11.24;73.90;100816.66;2859625;82;21087;-63
2020/12/16 14:32:58;;;;;;;31.87;20.25;;;;;;;11.24;73.93;100809.53;2864808;82;21131;-66
2020/12/16 14:37:03;;;;;;;35.43;23.55;;;;;;;11.20;73.76;100813.87;2876322;82;21201;-67
2020/12/16 14:41:07;;;;;;;41.30;24.27;;;;;;;11.12;73.74;100817.97;2896988;82;21155;-67
2020/12/16 14:45:11;;;;;;;36.88;23.35;;;;;;;11.08;73.79;100822.30;2896799;82;21589;-66
2020/12/16 14:49:14;;;;;;;38.42;22.55;;;;;;;11.00;73.79;100821.08;2908325;81;21153;-69
2020/12/16 14:53:17;;;;;;;190.88;129.57;;;;;;;10.93;73.73;100823.81;2910349;80;21144;-67
2020/12/16 14:57:24;;;;;;;145.70;98.78;;;;;;;10.82;74.26;100822.45;2898463;80;21108;-65
2020/12/16 15:01:27;;;;;;;176.18;111.45;;;;;;;10.74;74.58;100823.48;2896464;81;21139;-65
2020/12/16 15:05:32;;;;;;;95.83;65.65;;;;;;;10.68;74.65;100828.31;2896666;82;21536;-67
2020/12/16 15:09:35;;;;;;;103.55;72.00;;;;;;;10.61;74.87;100833.73;2947002;80;21169;-66
2020/12/16 15:13:37;;;;;;;84.87;56.53;;;;;;;10.54;75.19;100836.45;2913538;80;21145;-65
2020/12/16 15:17:44;;;;;;;73.28;51.48;;;;;;;10.48;75.23;100839.06;2910121;81;21161;-63
2020/12/16 15:21:47;;;;;;;84.58;57.93;;;;;;;10.41;75.36;100839.99;2910421;81;21129;-62
2020/12/16 15:25:50;;;;;;;100.25;66.65;;;;;;;10.44;75.39;100841.59;2860997;81;21156;-62
2020/12/16 15:29:55;;;;;;;83.20;56.33;;;;;;;10.43;75.43;100851.39;2900119;80;21123;-62
2020/12/16 15:33:58;;;;;;;93.37;60.58;;;;;;;10.46;75.42;100847.64;2878928;80;21128;-62
2020/12/16 15:38:03;;;;;;;97.05;56.50;;;;;;;10.47;75.15;100849.84;2810383;84;21141;-62
2020/12/16 15:42:08;;;;;;;80.65;44.95;;;;;;;10.24;75.19;100850.98;2898214;80;21161;-61
2020/12/16 15:46:17;;;;;;;91.05;52.67;;;;;;;10.05;75.69;100854.95;2896312;82;21137;-61
2020/12/16 15:50:20;;;;;;;84.77;48.75;;;;;;;9.98;76.34;100860.31;2899094;82;21137;-63
2020/12/16 15:54:22;;;;;;;87.42;53.50;;;;;;;9.97;76.51;100867.91;2899081;82;21129;-61
2020/12/16 15:58:25;;;;;;;112.15;64.62;;;;;;;9.95;76.50;100871.16;2895374;80;21168;-64
2020/12/16 16:02:30;;;;;;;110.95;63.70;;;;;;;9.99;76.67;100868.19;2899046;82;21157;-61
2020/12/16 16:06:33;;;;;;;62.03;44.88;;;;;;;10.11;76.98;100873.12;2898952;80;21584;-62
2020/12/16 16:10:37;;;;;;;120.00;68.62;;;;;;;10.25;76.94;100877.45;2898905;82;21133;-61
2020/12/16 16:14:40;;;;;;;148.82;94.65;;;;;;;10.32;76.09;100880.99;2898446;82;21803;-63
2020/12/16 16:18:43;;;;;;;329.13;224.80;;;;;;;10.19;75.94;100882.34;2896670;82;21141;-61
2020/12/16 16:22:46;;;;;;;161.60;98.67;;;;;;;10.03;76.46;100882.13;2898342;80;21512;-62
2020/12/16 16:26:52;;;;;;;70.65;48.30;;;;;;;10.04;77.15;100893.12;2897720;80;21592;-61
2020/12/16 16:30:55;;;;;;;53.00;36.77;;;;;;;10.05;76.67;100892.17;2896147;80;21706;-63
2020/12/16 16:34:59;;;;;;;56.05;36.03;;;;;;;9.93;76.84;100899.20;2899505;80;21139;-68
2020/12/16 16:39:05;;;;;;;106.07;71.47;;;;;;;9.85;77.20;100899.72;2902640;80;21173;-64
2020/12/16 16:43:08;;;;;;;126.35;74.82;;;;;;;9.93;77.64;100902.31;2896568;82;21125;-63
2020/12/16 16:47:11;;;;;;;104.80;65.57;;;;;;;10.01;77.31;100902.62;2897332;82;21137;-63
2020/12/16 16:51:14;;;;;;;98.33;61.42;;;;;;;10.07;76.95;100907.99;2900006;82;21145;-64
2020/12/16 16:55:18;;;;;;;44.67;33.73;;;;;;;10.15;76.72;100903.84;2897247;82;21146;-65
2020/12/16 16:59:22;;;;;;;45.30;29.57;;;;;;;10.19;76.33;100901.82;2895076;82;21170;-64
2020/12/16 17:03:26;;;;;;;50.78;31.37;;;;;;;10.22;76.14;100908.71;2898758;82;21160;-62
2020/12/16 17:07:29;;;;;;;43.00;27.35;;;;;;;10.24;76.09;100908.16;2898748;82;21149;-62
2020/12/16 17:11:38;;;;;;;54.70;37.53;;;;;;;10.24;75.95;100907.66;2898749;82;21161;-63
2020/12/16 17:15:42;;;;;;;147.50;86.42;;;;;;;10.23;75.91;100907.78;2899005;82;21141;-61
2020/12/16 17:19:45;;;;;;;90.92;53.65;;;;;;;10.18;76.02;100911.22;2897449;82;21134;-62
2020/12/16 17:23:48;;;;;;;60.80;35.40;;;;;;;10.18;76.05;100909.89;2897513;82;21125;-62
2020/12/16 17:27:51;;;;;;;155.55;117.72;;;;;;;10.22;76.08;100916.22;2896690;82;21184;-64
2020/12/16 17:31:56;;;;;;;118.55;88.33;;;;;;;10.24;76.01;100917.46;2898251;82;21150;-61
2020/12/16 17:35:59;;;;;;;94.70;65.87;;;;;;;10.22;76.07;100919.34;2898720;82;21101;-62
2020/12/16 17:40:05;;;;;;;120.67;76.35;;;;;;;10.15;76.04;100918.46;2896647;80;21556;-61
2020/12/16 17:44:08;;;;;;;168.90;102.27;;;;;;;10.13;75.90;100920.88;2896486;82;21113;-63
2020/12/16 17:48:11;;;;;;;169.28;95.57;;;;;;;10.02;75.98;100926.08;2872802;80;21142;-63
2020/12/16 17:52:14;;;;;;;87.37;49.73;;;;;;;9.96;76.36;100920.70;2894442;80;21572;-63
2020/12/16 17:56:19;;;;;;;64.32;41.90;;;;;;;9.96;76.25;100922.89;2897630;80;21122;-62
2020/12/16 18:00:26;;;;;;;90.05;53.78;;;;;;;9.82;76.34;100923.81;2898301;80;21157;-62
2020/12/16 18:04:33;;;;;;;85.87;51.25;;;;;;;9.66;76.94;100924.02;2894427;82;21189;-62
2020/12/16 18:08:40;;;;;;;;;;;;;;;9.51;77.34;100937.00;2892081;80;21151;-64
2020/12/16 18:12:54;;;;;;;75.67;46.13;;;;;;;9.43;77.64;100937.52;2893020;80;20570;-62
2020/12/16 18:21:20;;;;;;;104.12;61.90;;;;;;;9.25;78.40;100936.95;2896597;82;21146;-61
2020/12/16 18:25:27;;;;;;;180.20;103.97;;;;;;;9.15;78.68;100944.66;2896399;81;21119;-64
2020/12/16 18:29:32;;;;;;;230.25;118.80;;;;;;;9.15;79.16;100940.69;2897177;82;21125;-63
2020/12/16 18:33:38;;;;;;;232.92;130.32;;;;;;;9.19;78.78;100930.72;2897160;82;21113;-63
2020/12/16 18:37:44;;;;;;;185.93;109.00;;;;;;;9.15;78.62;100924.76;2884640;80;21156;-63
2020/12/16 18:41:47;;;;;;;127.50;77.58;;;;;;;9.09;78.78;100931.80;2885272;82;21161;-65
2020/12/16 18:45:53;;;;;;;139.50;85.60;;;;;;;9.03;79.13;100929.53;2889563;80;21122;-65
2020/12/16 18:50:09;;;;;;;158.30;94.95;;;;;;;9.00;79.27;100927.45;2877511;82;21183;-67
2020/12/16 18:54:14;;;;;;;187.57;105.60;;;;;;;8.98;79.42;100926.70;2842966;82;21175;-67